Time,TemperatureF,DewpointF,PressureIn,WindDirection,WindDirectionDegrees,WindSpeedMPH,WindSpeedGustMPH,Humidity,HourlyPrecipIn,Conditions,Clouds,dailyrainin,SolarRadiationWatts/m^2,SoftwareType,DateUTC
2017-07-27 00:01:00,58.6,52.4,29.74,WSW,250,0.0,1.0,80,0.00,CLR,SCT,0.09,0.0,WeatherDisplay:10.37,2017-07-26 23:01:00,
2017-07-27 00:06:00,58.5,52.0,29.74,WSW,246,0.0,12.0,79,0.00,CLR,SCT,0.09,0.0,WeatherDisplay:10.37,2017-07-26 23:06:00,
2017-07-27 00:11:00,58.4,52.3,29.74,WSW,245,0.0,0.0,80,0.00,CLR,SCT,0.09,0.0,WeatherDisplay:10.37,2017-07-26 23:11:00,
2017-07-27 00:16:00,58.3,52.2,29.73,WSW,250,0.0,1.0,80,0.00,CLR,SCT,0.09,0.0,WeatherDisplay:10.37,2017-07-26 23:16:00,
2017-07-27 00:21:00,58.2,52.1,29.73,West,271,0.0,1.0,80,0.00,CLR,SCT,0.09,0.0,WeatherDisplay:10.37,2017-07-26 23:21:00,
2017-07-27 00:26:00,58.2,52.0,29.74,West,270,0.0,1.0,80,0.00,CLR,SCT,0.09,0.0,WeatherDisplay:10.37,2017-07-26 23:26:00,
2017-07-27 00:31:00,58.1,52.0,29.73,West,259,0.0,25.3,80,0.00,CLR,SCT,0.09,0.0,WeatherDisplay:10.37,2017-07-26 23:31:00,
2017-07-27 00:36:00,58.0,52.2,29.73,SSW,210,0.0,25.3,81,0.00,CLR,SCT,0.09,0.0,WeatherDisplay:10.37,2017-07-26 23:36:00,
2017-07-27 00:41:00,58.0,52.2,29.74,SW,230,0.0,25.3,81,0.00,CLR,SCT,0.09,0.0,WeatherDisplay:10.37,2017-07-26 23:41:00,
2017-07-27 00:46:00,57.9,52.1,29.74,WSW,239,0.0,25.3,81,0.00,CLR,SCT,0.09,0.0,WeatherDisplay:10.37,2017-07-26 23:46:00,
2017-07-27 00:51:00,57.9,52.1,29.74,WSW,237,0.4,25.3,81,0.00,CLR,SCT,0.09,0.0,WeatherDisplay:10.37,2017-07-26 23:51:00,
2017-07-27 00:56:00,57.9,52.1,29.74,SSW,209,0.0,25.3,81,0.00,CLR,SCT,0.09,0.0,WeatherDisplay:10.37,2017-07-26 23:56:00,
2017-07-27 01:01:00,57.8,52.0,29.74,SW,218,0.0,25.3,81,0.00,RA,SCT,0.00,0.0,WeatherDisplay:10.37,2017-07-27 00:01:00,
2017-07-27 01:06:00,57.8,52.0,29.74,SW,223,0.0,25.3,81,0.00,RA,SCT,0.00,0.0,WeatherDisplay:10.37,2017-07-27 00:06:00,
2017-07-27 01:11:00,57.8,52.3,29.74,WSW,240,0.0,25.3,82,0.00,CLR,SCT,0.00,0.0,WeatherDisplay:10.37,2017-07-27 00:11:00,
2017-07-27 01:16:00,57.7,52.2,29.74,WSW,241,0.1,25.3,82,0.00,CLR,SCT,0.00,0.0,WeatherDisplay:10.37,2017-07-27 00:16:00,
2017-07-27 01:22:00,57.7,52.2,29.74,SSW,194,0.0,25.3,82,0.00,CLR,SCT,0.00,0.0,WeatherDisplay:10.37,2017-07-27 00:22:00,
2017-07-27 01:27:00,57.6,52.1,29.74,WSW,255,0.0,25.3,82,0.00,CLR,SCT,0.00,0.0,WeatherDisplay:10.37,2017-07-27 00:27:00,
2017-07-27 01:29:00,57.6,52.1,29.74,WSW,255,0.0,25.3,82,0.00,CLR,SCT,0.00,0.0,WeatherDisplay:10.37,2017-07-27 00:29:00,
2017-07-27 01:34:00,57.5,52.0,29.73,WSW,253,0.0,25.3,82,0.00,CLR,SCT,0.00,0.0,WeatherDisplay:10.37,2017-07-27 00:34:00,
2017-07-27 01:39:00,57.5,52.0,29.74,SW,218,0.0,25.3,82,0.00,CLR,SCT,0.00,0.0,WeatherDisplay:10.37,2017-07-27 00:39:00,
2017-07-27 01:44:00,57.3,51.9,29.74,SW,236,0.0,25.3,82,0.00,CLR,SCT,0.00,0.0,WeatherDisplay:10.37,2017-07-27 00:44:00,
2017-07-27 01:49:00,57.2,51.8,29.74,WSW,245,0.0,25.3,82,0.00,CLR,SCT,0.00,0.0,WeatherDisplay:10.37,2017-07-27 00:49:00,
2017-07-27 01:54:00,57.2,52.4,29.74,WSW,255,0.0,25.3,84,0.00,CLR,SCT,0.00,0.0,WeatherDisplay:10.37,2017-07-27 00:54:00,
2017-07-27 02:00:00,57.1,52.3,29.74,WSW,254,0.0,25.3,84,0.00,CLR,SCT,0.00,0.0,WeatherDisplay:10.37,2017-07-27 01:00:00,
2017-07-27 02:05:00,57.1,52.3,29.74,WSW,252,0.0,25.3,84,0.00,CLR,SCT,0.00,0.0,WeatherDisplay:10.37,2017-07-27 01:05:00,
2017-07-27 02:10:00,57.1,52.3,29.74,WSW,256,0.0,25.3,84,0.00,CLR,SCT,0.00,0.0,WeatherDisplay:10.37,2017-07-27 01:10:00,
2017-07-27 02:15:00,57.0,52.2,29.74,WSW,237,0.0,25.3,84,0.00,CLR,SCT,0.00,0.0,WeatherDisplay:10.37,2017-07-27 01:15:00,
2017-07-27 02:20:00,57.0,52.2,29.74,SW,232,0.0,25.3,84,0.00,CLR,SCT,0.00,0.0,WeatherDisplay:10.37,2017-07-27 01:20:00,
2017-07-27 02:25:00,57.0,52.2,29.74,SW,236,0.0,25.3,84,0.00,CLR,SCT,0.00,0.0,WeatherDisplay:10.37,2017-07-27 01:25:00,
2017-07-27 02:30:00,57.0,52.2,29.74,SSW,198,0.0,25.3,84,0.00,CLR,SCT,0.00,0.0,WeatherDisplay:10.37,2017-07-27 01:30:00,
2017-07-27 02:35:00,57.0,52.2,29.74,SW,230,0.0,25.3,84,0.00,CLR,SCT,0.00,0.0,WeatherDisplay:10.37,2017-07-27 01:35:00,
2017-07-27 02:40:00,57.0,52.2,29.74,SSW,205,0.0,25.3,84,0.00,CLR,SCT,0.00,0.0,WeatherDisplay:10.37,2017-07-27 01:40:00,
2017-07-27 02:45:00,56.9,52.1,29.74,WSW,243,0.0,25.3,84,0.00,CLR,SCT,0.00,0.0,WeatherDisplay:10.37,2017-07-27 01:45:00,
2017-07-27 02:50:00,56.9,52.1,29.74,SW,217,0.0,25.3,84,0.00,CLR,SCT,0.00,0.0,WeatherDisplay:10.37,2017-07-27 01:50:00,
2017-07-27 02:55:00,56.9,52.1,29.74,SW,221,0.0,25.3,84,0.00,CLR,SCT,0.00,0.0,WeatherDisplay:10.37,2017-07-27 01:55:00,
2017-07-27 03:00:00,56.9,52.1,29.74,SW,219,0.0,25.3,84,0.00,CLR,SCT,0.00,0.0,WeatherDisplay:10.37,2017-07-27 02:00:00,
2017-07-27 03:06:00,56.9,52.1,29.73,SW,234,0.0,25.3,84,0.00,CLR,SCT,0.00,0.0,WeatherDisplay:10.37,2017-07-27 02:06:00,
2017-07-27 03:11:00,56.8,52.0,29.73,SSW,211,0.0,0.0,84,0.00,CLR,SCT,0.00,0.0,WeatherDisplay:10.37,2017-07-27 02:11:00,
2017-07-27 03:16:00,56.8,52.0,29.73,SSW,204,0.0,0.0,84,0.00,CLR,SCT,0.00,0.0,WeatherDisplay:10.37,2017-07-27 02:16:00,
2017-07-27 03:21:00,56.8,52.3,29.73,SW,217,0.0,0.0,85,0.00,CLR,SCT,0.00,0.0,WeatherDisplay:10.37,2017-07-27 02:21:00,
2017-07-27 03:26:00,56.8,53.0,29.73,WSW,240,0.0,0.0,87,0.00,CLR,SCT,0.00,0.0,WeatherDisplay:10.37,2017-07-27 02:26:00,
2017-07-27 03:31:00,56.7,51.9,29.73,SSW,198,0.3,25.3,84,0.00,CLR,SCT,0.00,0.0,WeatherDisplay:10.37,2017-07-27 02:31:00,
2017-07-27 03:36:00,56.8,52.0,29.73,SW,216,0.0,10.0,84,0.00,CLR,SCT,0.00,0.0,WeatherDisplay:10.37,2017-07-27 02:36:00,
2017-07-27 03:41:00,56.8,52.3,29.73,SSW,203,0.0,5.0,85,0.00,CLR,SCT,0.00,0.0,WeatherDisplay:10.37,2017-07-27 02:41:00,
2017-07-27 03:46:00,56.7,51.9,29.73,SSW,208,1.0,7.0,84,0.00,CLR,SCT,0.00,0.0,WeatherDisplay:10.37,2017-07-27 02:46:00,
2017-07-27 03:51:00,56.7,52.9,29.74,SW,214,2.0,7.0,87,0.00,CLR,SCT,0.00,0.0,WeatherDisplay:10.37,2017-07-27 02:51:00,
2017-07-27 03:56:00,56.8,52.7,29.75,SSW,208,1.0,9.0,86,0.00,CLR,SCT,0.00,0.0,WeatherDisplay:10.37,2017-07-27 02:56:00,
2017-07-27 04:01:00,56.7,52.9,29.74,SSW,204,1.0,25.3,87,0.00,CLR,SCT,0.00,0.0,WeatherDisplay:10.37,2017-07-27 03:01:00,
2017-07-27 04:06:00,56.7,52.9,29.74,West,269,0.6,25.3,87,0.00,CLR,SCT,0.00,0.0,WeatherDisplay:10.37,2017-07-27 03:06:00,
2017-07-27 04:11:00,56.7,51.9,29.74,South,177,0.1,25.3,84,0.00,CLR,SCT,0.00,0.0,WeatherDisplay:10.37,2017-07-27 03:11:00,
2017-07-27 04:16:00,56.7,51.9,29.73,WSW,241,0.2,25.3,84,0.00,CLR,SCT,0.00,0.0,WeatherDisplay:10.37,2017-07-27 03:16:00,
2017-07-27 04:21:00,56.7,51.9,29.73,WSW,246,0.5,25.3,84,0.00,CLR,SCT,0.00,0.0,WeatherDisplay:10.37,2017-07-27 03:21:00,
2017-07-27 04:26:00,56.7,51.9,29.73,SW,226,0.0,25.3,84,0.00,CLR,SCT,0.00,0.0,WeatherDisplay:10.37,2017-07-27 03:26:00,
2017-07-27 04:31:00,56.7,51.9,29.74,West,273,0.2,25.3,84,0.00,CLR,SCT,0.00,0.0,WeatherDisplay:10.37,2017-07-27 03:31:00,
2017-07-27 04:36:00,56.7,51.9,29.74,SSW,213,0.0,25.3,84,0.00,CLR,SCT,0.00,0.0,WeatherDisplay:10.37,2017-07-27 03:36:00,
2017-07-27 04:41:00,56.7,52.2,29.73,West,265,0.0,25.3,85,0.00,CLR,SCT,0.00,0.0,WeatherDisplay:10.37,2017-07-27 03:41:00,
2017-07-27 04:46:00,56.7,52.2,29.74,SSW,203,0.2,25.3,85,0.00,CLR,SCT,0.00,0.0,WeatherDisplay:10.37,2017-07-27 03:46:00,
2017-07-27 04:51:00,56.7,52.2,29.74,West,281,0.8,25.3,85,0.00,CLR,SCT,0.00,0.0,WeatherDisplay:10.37,2017-07-27 03:51:00,
2017-07-27 04:56:00,56.6,52.1,29.74,West,275,0.1,25.3,85,0.00,CLR,SCT,0.00,0.0,WeatherDisplay:10.37,2017-07-27 03:56:00,
2017-07-27 05:02:00,56.6,52.1,29.74,SW,227,0.0,25.3,85,0.00,OVC,SCT,0.00,0.0,WeatherDisplay:10.37,2017-07-27 04:02:00,
2017-07-27 05:07:00,56.6,52.1,29.75,WSW,247,0.0,25.3,85,0.00,OVC,SCT,0.00,0.0,WeatherDisplay:10.37,2017-07-27 04:07:00,
2017-07-27 05:12:00,56.6,52.1,29.74,SW,232,2.2,25.3,85,0.00,OVC,SCT,0.00,0.0,WeatherDisplay:10.37,2017-07-27 04:12:00,
2017-07-27 05:17:00,56.5,52.0,29.74,West,260,0.0,25.3,85,0.00,OVC,SCT,0.00,0.0,WeatherDisplay:10.37,2017-07-27 04:17:00,
2017-07-27 05:22:00,56.5,52.0,29.75,SW,224,0.0,25.3,85,0.00,OVC,SCT,0.00,5.0,WeatherDisplay:10.37,2017-07-27 04:22:00,
2017-07-27 05:27:00,56.4,51.9,29.75,SSW,201,0.0,25.3,85,0.00,CLR,SCT,0.00,7.0,WeatherDisplay:10.37,2017-07-27 04:27:00,
2017-07-27 05:32:00,56.4,51.9,29.75,SSW,211,0.7,25.3,85,0.00,FEW,SCT,0.00,7.0,WeatherDisplay:10.37,2017-07-27 04:32:00,
2017-07-27 05:37:00,56.3,51.8,29.75,WSW,246,0.0,25.3,85,0.00,SCT,,0.00,9.0,WeatherDisplay:10.37,2017-07-27 04:37:00,
2017-07-27 05:42:00,56.3,52.2,29.75,WSW,252,0.0,25.3,86,0.00,SCT,,0.00,11.0,WeatherDisplay:10.37,2017-07-27 04:42:00,
2017-07-27 05:47:00,56.3,52.2,29.74,WSW,256,0.0,25.3,86,0.00,SCT,,0.00,16.0,WeatherDisplay:10.37,2017-07-27 04:47:00,
2017-07-27 05:52:00,56.2,52.1,29.74,SSW,213,0.0,25.3,86,0.00,FEW,SCT,0.00,26.0,WeatherDisplay:10.37,2017-07-27 04:52:00,
2017-07-27 05:57:00,56.2,52.1,29.74,West,259,0.0,25.3,86,0.00,FEW,SCT,0.00,30.0,WeatherDisplay:10.37,2017-07-27 04:57:00,
2017-07-27 06:02:00,56.2,52.1,29.74,SW,232,0.0,25.3,86,0.00,FEW,SCT,0.00,30.0,WeatherDisplay:10.37,2017-07-27 05:02:00,
2017-07-27 06:07:00,56.3,52.2,29.74,SW,232,0.0,25.3,86,0.00,FEW,SCT,0.00,47.0,WeatherDisplay:10.37,2017-07-27 05:07:00,
2017-07-27 06:13:00,56.3,52.2,29.73,SW,220,0.0,25.3,86,0.00,FEW,SCT,0.00,47.0,WeatherDisplay:10.37,2017-07-27 05:13:00,
2017-07-27 06:18:00,56.4,52.3,29.74,SW,236,0.0,25.3,86,0.00,SCT,,0.00,42.0,WeatherDisplay:10.37,2017-07-27 05:18:00,
2017-07-27 06:23:00,56.4,52.3,29.74,West,266,0.0,25.3,86,0.00,FEW,SCT,0.00,70.0,WeatherDisplay:10.37,2017-07-27 05:23:00,
2017-07-27 06:28:00,56.6,52.5,29.74,SW,236,0.0,25.3,86,0.00,FEW,SCT,0.00,58.0,WeatherDisplay:10.37,2017-07-27 05:28:00,
2017-07-27 06:33:00,56.6,52.5,29.74,SW,225,0.0,25.3,86,0.00,FEW,SCT,0.00,77.0,WeatherDisplay:10.37,2017-07-27 05:33:00,
2017-07-27 06:38:00,56.7,52.6,29.74,SW,215,0.0,25.3,86,0.00,FEW,SCT,0.00,76.0,WeatherDisplay:10.37,2017-07-27 05:38:00,
2017-07-27 06:43:00,56.9,52.8,29.74,SW,225,0.0,25.3,86,0.00,FEW,SCT,0.00,97.0,WeatherDisplay:10.37,2017-07-27 05:43:00,
2017-07-27 06:48:00,57.0,52.5,29.75,WSW,247,0.0,25.3,85,0.00,FEW,SCT,0.00,84.0,WeatherDisplay:10.37,2017-07-27 05:48:00,
2017-07-27 06:53:00,57.2,52.7,29.75,South,172,0.0,25.3,85,0.00,FEW,SCT,0.00,77.0,WeatherDisplay:10.37,2017-07-27 05:53:00,
2017-07-27 06:58:00,57.3,52.8,29.75,South,188,0.0,25.3,85,0.00,FEW,SCT,0.00,84.0,WeatherDisplay:10.37,2017-07-27 05:58:00,
2017-07-27 07:03:00,57.4,52.9,29.75,SSW,194,0.0,25.3,85,0.00,FEW,SCT,0.00,83.0,WeatherDisplay:10.37,2017-07-27 06:03:00,
2017-07-27 07:08:00,57.5,53.0,29.74,SSW,194,0.0,25.3,85,0.00,FEW,SCT,0.00,98.0,WeatherDisplay:10.37,2017-07-27 06:08:00,
2017-07-27 07:14:00,57.6,53.1,29.75,SSW,210,0.0,25.3,85,0.00,FEW,SCT,0.00,113.0,WeatherDisplay:10.37,2017-07-27 06:14:00,
2017-07-27 07:19:00,57.8,53.3,29.75,SSW,211,0.0,25.3,85,0.00,FEW,SCT,0.00,130.0,WeatherDisplay:10.37,2017-07-27 06:19:00,
2017-07-27 07:24:00,58.0,53.5,29.75,SSW,203,0.0,25.3,85,0.00,FEW,SCT,0.00,123.0,WeatherDisplay:10.37,2017-07-27 06:24:00,
2017-07-27 07:29:00,58.1,53.6,29.75,SSW,202,0.0,25.3,85,0.00,FEW,SCT,0.00,113.0,WeatherDisplay:10.37,2017-07-27 06:29:00,
2017-07-27 07:34:00,58.2,53.4,29.76,SSE,160,0.0,25.3,84,0.00,FEW,SCT,0.00,120.0,WeatherDisplay:10.37,2017-07-27 06:34:00,
2017-07-27 07:39:00,58.4,53.6,29.76,SW,230,0.0,25.3,84,0.00,FEW,SCT,0.00,120.0,WeatherDisplay:10.37,2017-07-27 06:39:00,
2017-07-27 07:44:00,58.5,53.7,29.75,SSW,192,0.0,25.3,84,0.00,FEW,SCT,0.00,113.0,WeatherDisplay:10.37,2017-07-27 06:44:00,
2017-07-27 07:49:00,58.6,53.8,29.75,West,264,0.0,25.3,84,0.00,FEW,SCT,0.00,79.0,WeatherDisplay:10.37,2017-07-27 06:49:00,
2017-07-27 07:54:00,58.6,53.1,29.75,South,185,0.0,25.3,82,0.00,FEW,SCT,0.00,76.0,WeatherDisplay:10.37,2017-07-27 06:54:00,
2017-07-27 07:59:00,58.6,53.8,29.76,WSW,241,0.0,25.3,84,0.00,FEW,SCT,0.00,72.0,WeatherDisplay:10.37,2017-07-27 06:59:00,
2017-07-27 08:04:00,58.6,53.8,29.76,SSW,192,0.0,25.3,84,0.00,FEW,SCT,0.00,100.0,WeatherDisplay:10.37,2017-07-27 07:04:00,
2017-07-27 08:09:00,58.7,53.9,29.76,SSW,201,0.0,25.3,84,0.00,FEW,SCT,0.00,134.0,WeatherDisplay:10.37,2017-07-27 07:09:00,
2017-07-27 08:15:00,58.8,54.0,29.76,SW,215,0.0,25.3,84,0.00,BKN,SCT,0.00,165.0,WeatherDisplay:10.37,2017-07-27 07:15:00,
2017-07-27 08:20:00,58.9,54.1,29.76,SSW,208,0.0,25.3,84,0.00,BKN,SCT,0.00,134.0,WeatherDisplay:10.37,2017-07-27 07:20:00,
2017-07-27 08:25:00,59.1,54.3,29.76,South,188,0.0,25.3,84,0.00,BKN,SCT,0.00,127.0,WeatherDisplay:10.37,2017-07-27 07:25:00,
2017-07-27 08:30:00,59.1,54.3,29.76,SW,236,0.0,25.3,84,0.00,BKN,SCT,0.00,105.0,WeatherDisplay:10.37,2017-07-27 07:30:00,
2017-07-27 08:35:00,59.2,53.7,29.75,WSW,257,0.0,25.3,82,0.00,BKN,SCT,0.00,97.0,WeatherDisplay:10.37,2017-07-27 07:35:00,
2017-07-27 08:40:00,59.2,53.7,29.75,SSW,194,0.0,25.3,82,0.00,SCT,,0.00,132.0,WeatherDisplay:10.37,2017-07-27 07:40:00,
2017-07-27 08:45:00,59.2,53.7,29.75,SW,219,0.5,25.3,82,0.00,SCT,,0.00,139.0,WeatherDisplay:10.37,2017-07-27 07:45:00,
2017-07-27 08:50:00,59.3,53.8,29.76,SSW,207,0.1,25.3,82,0.00,SCT,,0.00,141.0,WeatherDisplay:10.37,2017-07-27 07:50:00,
2017-07-27 08:55:00,59.4,53.9,29.76,SW,214,0.3,25.3,82,0.00,SCT,,0.00,113.0,WeatherDisplay:10.37,2017-07-27 07:55:00,
2017-07-27 09:00:00,59.5,54.0,29.75,SSW,200,0.0,25.3,82,0.00,SCT,,0.00,104.0,WeatherDisplay:10.37,2017-07-27 08:00:00,
2017-07-27 09:01:00,59.5,54.0,29.76,WSW,254,0.0,25.3,82,0.00,SCT,,0.00,102.0,WeatherDisplay:10.37,2017-07-27 08:01:00,
2017-07-27 09:06:00,59.5,54.0,29.76,SSW,206,0.1,25.3,82,0.00,SCT,,0.00,91.0,WeatherDisplay:10.37,2017-07-27 08:06:00,
2017-07-27 09:12:00,59.6,54.1,29.76,WSW,245,0.9,25.3,82,0.00,SCT,,0.00,97.0,WeatherDisplay:10.37,2017-07-27 08:12:00,
2017-07-27 09:17:00,59.6,54.1,29.75,SSW,196,1.5,25.3,82,0.00,SCT,,0.00,123.0,WeatherDisplay:10.37,2017-07-27 08:17:00,
2017-07-27 09:22:00,59.7,54.2,29.75,SW,229,0.3,25.3,82,0.00,SCT,,0.00,134.0,WeatherDisplay:10.37,2017-07-27 08:22:00,
2017-07-27 09:27:00,59.8,54.3,29.75,SSW,213,1.8,25.3,82,0.00,SCT,,0.00,139.0,WeatherDisplay:10.37,2017-07-27 08:27:00,
2017-07-27 09:32:00,59.9,54.1,29.75,SSW,213,0.7,25.3,81,0.00,SCT,,0.00,137.0,WeatherDisplay:10.37,2017-07-27 08:32:00,
2017-07-27 09:37:00,60.0,54.2,29.74,SSW,198,0.6,25.3,81,0.00,SCT,,0.00,223.0,WeatherDisplay:10.37,2017-07-27 08:37:00,
2017-07-27 09:39:00,60.1,54.2,29.74,SW,225,4.8,25.3,81,0.00,SCT,,0.00,241.0,WeatherDisplay:10.37,2017-07-27 08:39:00,
2017-07-27 09:42:00,60.2,54.3,29.74,South,187,1.3,25.3,81,0.00,SCT,,0.00,223.0,WeatherDisplay:10.37,2017-07-27 08:42:00,
2017-07-27 09:47:00,60.4,54.2,29.74,SSW,198,2.1,25.3,80,0.00,SCT,,0.00,253.0,WeatherDisplay:10.37,2017-07-27 08:47:00,
2017-07-27 09:48:00,60.5,54.3,29.74,SSW,204,5.3,25.3,80,0.00,SCT,,0.00,246.0,WeatherDisplay:10.37,2017-07-27 08:48:00,
2017-07-27 09:53:00,60.7,54.1,29.74,SSW,206,3.7,25.3,79,0.00,SCT,,0.00,223.0,WeatherDisplay:10.37,2017-07-27 08:53:00,
2017-07-27 09:58:00,60.9,54.0,29.74,SW,236,3.6,25.3,78,0.00,SCT,,0.00,214.0,WeatherDisplay:10.37,2017-07-27 08:58:00,
2017-07-27 10:03:00,60.9,52.9,29.74,SW,221,1.2,25.3,75,0.00,SCT,,0.00,241.0,WeatherDisplay:10.37,2017-07-27 09:03:00,
2017-07-27 10:08:00,61.0,53.0,29.74,SSW,200,3.3,25.3,75,0.00,SCT,,0.00,330.0,WeatherDisplay:10.37,2017-07-27 09:08:00,
2017-07-27 10:13:00,61.1,53.1,29.74,South,182,0.8,25.3,75,0.00,SCT,,0.00,336.0,WeatherDisplay:10.37,2017-07-27 09:13:00,
2017-07-27 10:18:00,61.3,53.3,29.74,SW,227,3.0,25.3,75,0.00,SCT,,0.00,311.0,WeatherDisplay:10.37,2017-07-27 09:18:00,
2017-07-27 10:23:00,61.6,53.2,29.74,South,177,0.9,25.3,74,0.00,SCT,,0.00,339.0,WeatherDisplay:10.37,2017-07-27 09:23:00,
2017-07-27 10:28:00,62.0,54.3,29.74,SW,221,0.3,25.3,76,0.00,SCT,,0.00,429.0,WeatherDisplay:10.37,2017-07-27 09:28:00,
2017-07-27 10:33:00,62.5,54.1,29.73,SSW,202,1.5,25.3,74,0.00,SCT,,0.00,336.0,WeatherDisplay:10.37,2017-07-27 09:33:00,
2017-07-27 10:39:00,63.3,54.5,29.73,South,178,0.8,25.3,73,0.00,SCT,,0.00,821.0,WeatherDisplay:10.37,2017-07-27 09:39:00,
2017-07-27 10:44:00,64.4,54.8,29.73,South,189,4.8,25.3,71,0.00,BKN,SCT,0.00,694.0,WeatherDisplay:10.37,2017-07-27 09:44:00,
2017-07-27 10:49:00,65.1,54.3,29.73,SW,219,5.0,25.3,68,0.00,BKN,SCT,0.00,432.0,WeatherDisplay:10.37,2017-07-27 09:49:00,
2017-07-27 10:54:00,65.8,55.3,29.73,SSW,212,1.1,25.3,69,0.00,BKN,SCT,0.00,953.0,WeatherDisplay:10.37,2017-07-27 09:54:00,
2017-07-27 10:59:00,66.2,55.3,29.73,SSW,199,1.7,25.3,68,0.00,BKN,SCT,0.00,353.0,WeatherDisplay:10.37,2017-07-27 09:59:00,
2017-07-27 11:04:00,66.3,55.0,29.73,SW,229,1.1,25.3,67,0.00,BKN,SCT,0.00,306.0,WeatherDisplay:10.37,2017-07-27 10:04:00,
2017-07-27 11:09:00,65.9,53.8,29.73,SW,225,3.0,25.3,65,0.00,BKN,SCT,0.00,149.0,WeatherDisplay:10.37,2017-07-27 10:09:00,
2017-07-27 11:14:00,65.1,54.7,29.73,South,185,0.9,25.3,69,0.01,RA,SCT,0.01,86.0,WeatherDisplay:10.37,2017-07-27 10:14:00,
2017-07-27 11:19:00,64.2,55.4,29.73,SSW,198,0.5,25.3,73,0.01,RA,SCT,0.01,88.0,WeatherDisplay:10.37,2017-07-27 10:19:00,
2017-07-27 11:24:00,63.5,56.9,29.73,West,263,0.6,25.3,79,0.02,RA,SCT,0.02,255.0,WeatherDisplay:10.37,2017-07-27 10:24:00,
2017-07-27 11:30:00,63.2,56.9,29.72,West,267,0.0,25.3,80,0.02,RA,SCT,0.02,378.0,WeatherDisplay:10.37,2017-07-27 10:30:00,
2017-07-27 11:35:00,63.4,57.1,29.72,SSW,196,0.1,25.3,80,0.02,SCT,,0.02,550.0,WeatherDisplay:10.37,2017-07-27 10:35:00,
2017-07-27 11:40:00,63.6,57.3,29.72,WSW,238,0.3,25.3,80,0.02,BKN,SCT,0.02,218.0,WeatherDisplay:10.37,2017-07-27 10:40:00,
2017-07-27 11:45:00,63.6,57.0,29.72,WSW,249,2.5,25.3,79,0.02,BKN,SCT,0.02,128.0,WeatherDisplay:10.37,2017-07-27 10:45:00,
2017-07-27 11:50:00,63.3,56.7,29.72,WSW,239,1.8,25.3,79,0.02,BKN,SCT,0.02,56.0,WeatherDisplay:10.37,2017-07-27 10:50:00,
2017-07-27 11:55:00,63.0,56.7,29.72,SSW,202,2.2,25.3,80,0.03,RA,SCT,0.03,49.0,WeatherDisplay:10.37,2017-07-27 10:55:00,
2017-07-27 12:00:00,62.4,56.8,29.73,SSW,208,1.3,25.3,82,0.04,RA,SCT,0.04,60.0,WeatherDisplay:10.37,2017-07-27 11:00:00,
2017-07-27 12:05:00,61.6,56.0,29.72,SSW,210,1.3,25.3,82,0.06,RA,SCT,0.06,107.0,WeatherDisplay:10.37,2017-07-27 11:05:00,
2017-07-27 12:10:00,61.0,56.5,29.72,South,189,0.0,25.3,85,0.06,RA,SCT,0.06,218.0,WeatherDisplay:10.37,2017-07-27 11:10:00,
2017-07-27 12:16:00,60.9,57.0,29.72,South,184,0.0,25.3,87,0.05,BKN,SCT,0.06,385.0,WeatherDisplay:10.37,2017-07-27 11:16:00,
2017-07-27 12:21:00,61.5,58.9,29.72,South,186,1.0,5.0,91,0.00,BKN,SCT,0.06,385.0,WeatherDisplay:10.37,2017-07-27 11:21:00,
2017-07-27 12:26:00,62.4,59.7,29.72,SSW,196,1.0,9.0,91,0.00,FEW,SCT,0.06,710.0,WeatherDisplay:10.37,2017-07-27 11:26:00,
2017-07-27 12:31:00,63.3,60.3,29.72,SSW,211,1.0,6.0,90,0.00,CLR,SCT,0.06,872.0,WeatherDisplay:10.37,2017-07-27 11:31:00,
2017-07-27 12:36:00,64.2,60.9,29.71,SW,232,2.0,8.0,89,0.00,CLR,SCT,0.06,946.0,WeatherDisplay:10.37,2017-07-27 11:36:00,
2017-07-27 12:41:00,65.3,61.3,29.71,WSW,237,1.0,4.0,87,0.00,SCT,SCT,0.06,1102.0,WeatherDisplay:10.37,2017-07-27 11:41:00,
2017-07-27 12:46:00,66.4,61.4,29.71,SW,219,5.0,10.0,84,0.00,SCT,SCT,0.06,949.0,WeatherDisplay:10.37,2017-07-27 11:46:00,
2017-07-27 12:51:00,66.9,59.1,29.71,SSW,206,0.9,25.3,76,0.05,SCT,,0.06,707.0,WeatherDisplay:10.37,2017-07-27 11:51:00,
2017-07-27 12:56:00,67.1,58.9,29.71,SSW,206,2.0,12.0,75,0.00,SCT,SCT,0.06,679.0,WeatherDisplay:10.37,2017-07-27 11:56:00,
2017-07-27 13:01:00,67.7,59.1,29.71,SW,220,1.0,5.0,74,0.00,SCT,SCT,0.06,1028.0,WeatherDisplay:10.37,2017-07-27 12:01:00,
2017-07-27 13:06:00,68.1,59.1,29.70,SW,221,1.0,14.0,73,0.00,SCT,SCT,0.06,288.0,WeatherDisplay:10.37,2017-07-27 12:06:00,
2017-07-27 13:11:00,68.1,55.9,29.70,SW,234,3.0,12.0,65,0.00,SCT,SCT,0.06,536.0,WeatherDisplay:10.37,2017-07-27 12:11:00,
2017-07-27 13:16:00,68.3,56.1,29.70,West,273,1.1,25.3,65,0.00,SCT,,0.06,816.0,WeatherDisplay:10.37,2017-07-27 12:16:00,
2017-07-27 13:21:00,68.5,55.4,29.70,SSW,213,3.0,9.0,63,0.00,SCT,SCT,0.06,703.0,WeatherDisplay:10.37,2017-07-27 12:21:00,
2017-07-27 13:26:00,68.5,54.5,29.70,SSW,198,2.0,16.0,61,0.00,SCT,SCT,0.06,285.0,WeatherDisplay:10.37,2017-07-27 12:26:00,
2017-07-27 13:31:00,68.2,53.8,29.69,SSW,202,2.0,14.0,60,0.00,SCT,SCT,0.06,332.0,WeatherDisplay:10.37,2017-07-27 12:31:00,
2017-07-27 13:36:00,68.3,53.0,29.69,SW,214,2.0,7.0,58,0.00,SCT,SCT,0.06,1058.0,WeatherDisplay:10.37,2017-07-27 12:36:00,
2017-07-27 13:41:00,68.8,56.1,29.69,SSW,202,2.0,14.0,64,0.00,SCT,SCT,0.06,1058.0,WeatherDisplay:10.37,2017-07-27 12:41:00,
2017-07-27 13:46:00,69.1,54.6,29.69,SSW,206,1.0,12.0,60,0.00,SCT,SCT,0.06,306.0,WeatherDisplay:10.37,2017-07-27 12:46:00,
2017-07-27 13:51:00,69.1,54.2,29.69,SW,218,2.0,5.0,59,0.00,SCT,SCT,0.06,223.0,WeatherDisplay:10.37,2017-07-27 12:51:00,
2017-07-27 13:56:00,68.7,53.8,29.70,SSW,212,2.0,10.0,59,0.00,SCT,SCT,0.06,329.0,WeatherDisplay:10.37,2017-07-27 12:56:00,
2017-07-27 14:01:00,68.6,54.2,29.70,SSW,208,2.0,9.0,60,0.00,SCT,SCT,0.06,494.0,WeatherDisplay:10.37,2017-07-27 13:01:00,
2017-07-27 14:06:00,68.5,53.1,29.70,SSW,209,3.0,20.0,58,0.00,SCT,SCT,0.06,353.0,WeatherDisplay:10.37,2017-07-27 13:06:00,
2017-07-27 14:11:00,68.2,53.8,29.70,SSW,210,2.0,14.0,60,0.00,SCT,SCT,0.06,761.0,WeatherDisplay:10.37,2017-07-27 13:11:00,
2017-07-27 14:16:00,68.3,53.9,29.70,SSW,212,1.0,6.0,60,0.00,SCT,SCT,0.06,359.0,WeatherDisplay:10.37,2017-07-27 13:16:00,
2017-07-27 14:21:00,68.4,53.5,29.70,SW,226,1.0,15.0,59,0.00,SCT,SCT,0.06,457.0,WeatherDisplay:10.37,2017-07-27 13:21:00,
2017-07-27 14:26:00,68.8,53.9,29.70,SSW,206,3.0,13.0,59,0.00,SCT,SCT,0.06,933.0,WeatherDisplay:10.37,2017-07-27 13:26:00,
2017-07-27 14:31:00,69.2,53.8,29.70,SSW,198,2.0,9.0,58,0.00,SCT,SCT,0.06,933.0,WeatherDisplay:10.37,2017-07-27 13:31:00,
2017-07-27 14:36:00,69.6,53.7,29.69,SSW,196,3.5,25.3,57,0.00,SCT,,0.06,1100.0,WeatherDisplay:10.37,2017-07-27 13:36:00,
2017-07-27 14:41:00,70.2,53.3,29.69,WNW,284,2.5,25.3,55,0.00,BKN,SCT,0.06,1028.0,WeatherDisplay:10.37,2017-07-27 13:41:00,
2017-07-27 14:46:00,70.3,53.9,29.69,SSW,211,0.5,25.3,56,0.00,BKN,SCT,0.06,568.0,WeatherDisplay:10.37,2017-07-27 13:46:00,
2017-07-27 14:51:00,70.0,53.6,29.69,WSW,247,1.3,25.3,56,0.00,BKN,SCT,0.06,315.0,WeatherDisplay:10.37,2017-07-27 13:51:00,
2017-07-27 14:56:00,69.5,53.1,29.70,West,268,0.3,25.3,56,0.00,BKN,SCT,0.06,260.0,WeatherDisplay:10.37,2017-07-27 13:56:00,
2017-07-27 15:01:00,69.2,54.3,29.69,South,183,0.3,25.3,59,0.00,BKN,SCT,0.06,204.0,WeatherDisplay:10.37,2017-07-27 14:01:00,
2017-07-27 15:06:00,68.9,53.0,29.69,SSW,213,0.7,25.3,57,0.00,BKN,SCT,0.06,139.0,WeatherDisplay:10.37,2017-07-27 14:06:00,
2017-07-27 15:11:00,68.3,52.5,29.70,SSW,199,3.4,25.3,57,0.00,BKN,SCT,0.06,134.0,WeatherDisplay:10.37,2017-07-27 14:11:00,
2017-07-27 15:16:00,67.7,52.4,29.70,SW,222,2.2,25.3,58,0.00,BKN,SCT,0.06,142.0,WeatherDisplay:10.37,2017-07-27 14:16:00,
2017-07-27 15:21:00,67.3,52.9,29.70,SSW,194,0.2,25.3,60,0.00,BKN,SCT,0.06,141.0,WeatherDisplay:10.37,2017-07-27 14:21:00,
2017-07-27 15:26:00,67.1,53.2,29.70,SW,233,0.2,25.3,61,0.00,BKN,SCT,0.06,116.0,WeatherDisplay:10.37,2017-07-27 14:26:00,
2017-07-27 15:31:00,66.9,53.0,29.70,SW,215,0.2,25.3,61,0.00,BKN,SCT,0.06,104.0,WeatherDisplay:10.37,2017-07-27 14:31:00,
2017-07-27 15:36:00,66.7,55.0,29.71,WNW,284,1.6,25.3,66,0.00,BKN,SCT,0.06,113.0,WeatherDisplay:10.37,2017-07-27 14:36:00,
2017-07-27 15:41:00,66.2,54.9,29.71,WNW,296,3.4,25.3,67,0.00,SCT,,0.06,171.0,WeatherDisplay:10.37,2017-07-27 14:41:00,
2017-07-27 15:47:00,64.9,56.0,29.72,NNW,340,2.1,25.3,73,0.01,RA,SCT,0.07,155.0,WeatherDisplay:10.37,2017-07-27 14:47:00,
2017-07-27 15:52:00,63.8,56.8,29.71,West,280,0.1,25.3,78,0.02,RA,SCT,0.08,246.0,WeatherDisplay:10.37,2017-07-27 14:52:00,
2017-07-27 15:57:00,63.1,57.2,29.71,WNW,286,0.0,25.3,81,0.02,RA,SCT,0.08,338.0,WeatherDisplay:10.37,2017-07-27 14:57:00,
2017-07-27 16:02:00,62.8,57.9,29.71,WNW,296,0.1,25.3,84,0.02,SCT,,0.08,336.0,WeatherDisplay:10.37,2017-07-27 15:02:00,
2017-07-27 16:07:00,62.8,57.9,29.71,West,263,1.6,25.3,84,0.02,SCT,,0.08,427.0,WeatherDisplay:10.37,2017-07-27 15:07:00,
2017-07-27 16:12:00,63.0,57.4,29.71,WSW,243,0.1,25.3,82,0.02,BKN,SCT,0.08,566.0,WeatherDisplay:10.37,2017-07-27 15:12:00,
2017-07-27 16:17:00,63.5,58.6,29.70,SSW,192,0.2,25.3,84,0.02,BKN,SCT,0.08,462.0,WeatherDisplay:10.37,2017-07-27 15:17:00,
2017-07-27 16:22:00,64.3,58.7,29.70,SSE,168,0.0,25.3,82,0.02,BKN,SCT,0.08,610.0,WeatherDisplay:10.37,2017-07-27 15:22:00,
2017-07-27 16:27:00,65.0,58.7,29.70,WSW,242,0.1,25.3,80,0.02,BKN,SCT,0.08,629.0,WeatherDisplay:10.37,2017-07-27 15:27:00,
2017-07-27 16:32:00,65.7,58.7,29.70,WSW,247,0.1,25.3,78,0.02,BKN,SCT,0.08,142.0,WeatherDisplay:10.37,2017-07-27 15:32:00,
2017-07-27 16:37:00,66.1,57.6,29.71,WNW,293,1.2,25.3,74,0.02,BKN,SCT,0.08,121.0,WeatherDisplay:10.37,2017-07-27 15:37:00,
2017-07-27 16:38:00,66.1,57.6,29.70,WNW,293,1.0,25.3,74,0.02,BKN,SCT,0.08,116.0,WeatherDisplay:10.37,2017-07-27 15:38:00,
2017-07-27 16:43:00,65.9,57.0,29.70,West,265,0.1,25.3,73,0.02,BKN,SCT,0.08,258.0,WeatherDisplay:10.37,2017-07-27 15:43:00,
2017-07-27 16:48:00,66.0,57.8,29.70,WSW,250,0.0,25.3,75,0.01,BKN,SCT,0.08,199.0,WeatherDisplay:10.37,2017-07-27 15:48:00,
2017-07-27 16:53:00,66.0,57.5,29.70,West,262,0.0,25.3,74,0.00,BKN,SCT,0.08,139.0,WeatherDisplay:10.37,2017-07-27 15:53:00,
2017-07-27 16:58:00,66.0,57.5,29.71,WSW,248,0.1,25.3,74,0.00,BKN,SCT,0.08,123.0,WeatherDisplay:10.37,2017-07-27 15:58:00,
2017-07-27 17:03:00,65.9,56.6,29.70,WSW,256,0.0,25.3,72,0.00,BKN,SCT,0.08,49.0,WeatherDisplay:10.37,2017-07-27 16:03:00,
2017-07-27 17:08:00,65.7,56.0,29.71,WSW,250,3.7,25.3,71,0.00,BKN,SCT,0.08,28.0,WeatherDisplay:10.37,2017-07-27 16:08:00,
2017-07-27 17:14:00,64.9,56.4,29.71,NW,310,0.7,25.3,74,0.02,RA,SCT,0.10,47.0,WeatherDisplay:10.37,2017-07-27 16:14:00,
2017-07-27 17:19:00,63.9,56.9,29.71,WNW,302,1.1,25.3,78,0.04,RA,SCT,0.12,93.0,WeatherDisplay:10.37,2017-07-27 16:19:00,
2017-07-27 17:24:00,63.2,57.3,29.72,WNW,284,0.1,25.3,81,0.04,RA,SCT,0.12,225.0,WeatherDisplay:10.37,2017-07-27 16:24:00,
2017-07-27 17:29:00,62.7,56.8,29.72,WSW,249,1.1,25.3,81,0.04,BKN,SCT,0.12,146.0,WeatherDisplay:10.37,2017-07-27 16:29:00,
2017-07-27 17:34:00,62.4,57.5,29.71,West,265,0.1,25.3,84,0.04,BKN,SCT,0.12,139.0,WeatherDisplay:10.37,2017-07-27 16:34:00,
2017-07-27 17:39:00,62.1,57.2,29.71,West,263,0.0,25.3,84,0.04,BKN,SCT,0.12,135.0,WeatherDisplay:10.37,2017-07-27 16:39:00,
2017-07-27 17:44:00,61.9,57.3,29.71,West,260,0.0,25.3,85,0.04,SCT,,0.12,155.0,WeatherDisplay:10.37,2017-07-27 16:44:00,
2017-07-27 17:49:00,61.8,57.2,29.71,West,259,0.0,25.3,85,0.04,SCT,,0.12,257.0,WeatherDisplay:10.37,2017-07-27 16:49:00,
2017-07-27 17:54:00,61.9,58.0,29.70,SW,219,0.0,25.3,87,0.04,SCT,,0.12,548.0,WeatherDisplay:10.37,2017-07-27 16:54:00,
2017-07-27 17:55:00,61.9,58.0,29.70,SW,219,0.0,25.3,87,0.04,SCT,,0.12,548.0,WeatherDisplay:10.37,2017-07-27 16:55:00,
2017-07-27 18:00:00,62.3,58.4,29.70,SSW,194,0.5,25.3,87,0.04,SCT,,0.12,436.0,WeatherDisplay:10.37,2017-07-27 17:00:00,
2017-07-27 18:05:00,62.5,58.3,29.70,South,190,1.5,25.3,86,0.04,SCT,,0.12,392.0,WeatherDisplay:10.37,2017-07-27 17:05:00,
2017-07-27 18:10:00,62.7,57.1,29.70,South,184,1.6,25.3,82,0.04,SCT,,0.12,352.0,WeatherDisplay:10.37,2017-07-27 17:10:00,
2017-07-27 18:15:00,62.7,56.4,29.70,SSW,210,0.7,25.3,80,0.01,SCT,,0.12,336.0,WeatherDisplay:10.37,2017-07-27 17:15:00,
2017-07-27 18:20:00,62.9,57.0,29.70,SSW,202,0.4,25.3,81,0.00,SCT,,0.12,207.0,WeatherDisplay:10.37,2017-07-27 17:20:00,
2017-07-27 18:25:00,63.0,56.7,29.70,South,190,1.1,25.3,80,0.00,SCT,,0.12,311.0,WeatherDisplay:10.37,2017-07-27 17:25:00,
2017-07-27 18:30:00,63.0,56.7,29.70,SW,227,2.0,25.3,80,0.00,SCT,,0.12,299.0,WeatherDisplay:10.37,2017-07-27 17:30:00,
2017-07-27 18:36:00,63.0,56.0,29.70,WSW,247,2.1,25.3,78,0.00,SCT,,0.12,281.0,WeatherDisplay:10.37,2017-07-27 17:36:00,
2017-07-27 18:41:00,63.1,56.8,29.70,South,183,0.7,25.3,80,0.00,SCT,,0.12,297.0,WeatherDisplay:10.37,2017-07-27 17:41:00,
2017-07-27 18:46:00,63.1,56.8,29.70,SW,220,2.0,7.0,80,0.00,SCT,SCT,0.12,274.0,WeatherDisplay:10.37,2017-07-27 17:46:00,
2017-07-27 18:51:00,63.2,56.6,29.70,SW,216,1.0,9.0,79,0.00,SCT,SCT,0.12,288.0,WeatherDisplay:10.37,2017-07-27 17:51:00,
2017-07-27 18:56:00,63.3,57.0,29.70,SSW,206,2.0,8.0,80,0.00,SCT,SCT,0.12,137.0,WeatherDisplay:10.37,2017-07-27 17:56:00,
2017-07-27 19:01:00,63.3,56.7,29.70,SSW,194,2.8,25.3,79,0.00,SCT,,0.12,155.0,WeatherDisplay:10.37,2017-07-27 18:01:00,